createdAt,value
2019-01-14T00:02:09.082Z,97158.36
2019-01-14T00:04:19.903Z,97171.44
2019-01-14T00:06:30.820Z,97175.70
2019-01-14T00:08:41.626Z,97181.31
2019-01-14T00:10:52.425Z,97174.66
2019-01-14T00:13:03.568Z,97179.16
2019-01-14T00:15:14.469Z,97189.48
2019-01-14T00:17:25.308Z,97196.67
2019-01-14T00:19:36.125Z,97198.79
2019-01-14T00:21:46.914Z,97201.30
2019-01-14T00:23:57.720Z,97210.69
2019-01-14T00:26:08.547Z,97212.80
2019-01-14T00:28:19.357Z,97217.02
2019-01-14T00:30:30.169Z,97223.94
2019-01-14T00:32:40.974Z,97227.73
2019-01-14T00:34:51.794Z,97246.97
2019-01-14T00:37:02.606Z,97260.86
2019-01-14T00:39:13.415Z,97248.42
2019-01-14T00:41:24.252Z,97250.34
2019-01-14T00:43:35.050Z,97258.25
2019-01-14T00:45:45.880Z,97254.84
2019-01-14T00:47:56.695Z,97259.34
2019-01-14T00:50:49.164Z,97257.59
2019-01-14T00:52:59.969Z,97256.48
2019-01-14T00:55:52.424Z,97263.31
2019-01-14T00:58:03.333Z,97260.98
2019-01-14T01:01:02.437Z,97264.83
2019-01-14T01:05:28.246Z,97266.23
2019-01-14T01:07:39.037Z,97265.58
2019-01-14T01:09:49.897Z,97273.14
2019-01-14T01:12:00.648Z,97268.81
2019-01-14T01:14:11.435Z,97264.95
2019-01-14T01:16:22.359Z,97267.72
2019-01-14T01:18:33.157Z,97273.81
2019-01-14T01:20:44.076Z,97276.20
2019-01-14T01:22:54.886Z,97278.68
2019-01-14T01:25:47.346Z,97281.27
2019-01-14T01:27:58.156Z,97282.06
2019-01-14T01:30:28.829Z,97288.67
2019-01-14T01:32:39.652Z,97289.31
2019-01-14T01:34:50.443Z,97295.22
2019-01-14T01:37:01.257Z,97282.50
2019-01-14T01:39:12.054Z,97285.55
2019-01-14T01:41:22.847Z,97283.33
2019-01-14T01:43:33.673Z,97284.74
2019-01-14T01:45:44.470Z,97282.33
2019-01-14T01:47:55.399Z,97294.42
2019-01-14T01:50:26.073Z,97290.06
2019-01-14T01:52:36.885Z,97297.23
2019-01-14T01:54:47.685Z,97306.20
2019-01-14T01:56:58.579Z,97306.95
2019-01-14T01:59:09.413Z,97313.50
2019-01-14T02:01:20.211Z,97318.45
2019-01-14T02:03:31.014Z,97316.50
2019-01-14T02:05:41.865Z,97309.50
2019-01-14T02:07:52.639Z,97307.45
2019-01-14T02:10:45.097Z,97308.64
2019-01-14T02:12:55.894Z,97321.36
2019-01-14T02:15:48.377Z,97326.22
2019-01-14T02:17:59.186Z,97332.95
2019-01-14T02:20:51.662Z,97335.76
2019-01-14T02:23:02.651Z,97341.84
2019-01-14T02:27:52.537Z,97350.69
2019-01-14T02:30:44.989Z,97342.30
2019-01-14T02:32:55.789Z,97348.28
2019-01-14T02:35:48.251Z,97351.41
2019-01-14T02:37:59.070Z,97360.66
2019-01-14T02:40:51.515Z,97361.11
2019-01-14T02:43:02.417Z,97359.62
2019-01-14T02:45:54.881Z,97365.00
2019-01-14T02:48:05.690Z,97375.92
2019-01-14T02:50:16.570Z,97375.31
2019-01-14T02:52:27.391Z,97377.43
2019-01-14T02:54:38.185Z,97382.58
2019-01-14T02:56:49.008Z,97386.44
2019-01-14T02:58:59.805Z,97384.79
2019-01-14T03:01:10.636Z,97394.56
2019-01-14T03:03:21.416Z,97386.44
2019-01-14T03:05:32.423Z,97392.20
2019-01-14T03:07:43.234Z,97390.81
2019-01-14T03:09:54.028Z,97399.92
2019-01-14T03:12:04.845Z,97397.50
2019-01-14T03:14:15.654Z,97402.65
2019-01-14T03:16:26.469Z,97407.89
2019-01-14T03:18:37.282Z,97407.12
2019-01-14T03:20:48.075Z,97409.33
2019-01-14T03:22:58.901Z,97411.05
2019-01-14T03:25:58.132Z,97419.84
2019-01-14T03:28:04.062Z,97420.06
2019-01-14T03:30:56.538Z,97424.02
2019-01-14T03:33:07.376Z,97424.23
2019-01-14T03:35:18.186Z,97422.63
2019-01-14T03:37:28.986Z,97422.63
2019-01-14T03:39:39.789Z,97411.33
2019-01-14T03:41:50.645Z,97425.66
2019-01-14T03:44:01.629Z,97421.39
2019-01-14T03:46:12.520Z,97432.09
2019-01-14T03:48:23.551Z,97433.24
2019-01-14T03:50:34.340Z,97437.25
2019-01-14T03:52:45.152Z,97443.81
2019-01-14T03:54:55.978Z,97440.95
2019-01-14T03:57:07.037Z,97458.44
2019-01-14T03:59:17.920Z,97452.00
2019-01-14T04:01:28.744Z,97464.05
2019-01-14T04:03:39.549Z,97469.57
2019-01-14T04:05:50.348Z,97466.42
2019-01-14T04:08:42.844Z,97475.12
2019-01-14T04:10:53.636Z,97482.09
2019-01-14T04:13:04.462Z,97488.06
2019-01-14T04:15:56.940Z,97495.80
2019-01-14T04:18:07.747Z,97496.16
2019-01-14T04:20:18.754Z,97504.66
2019-01-14T04:22:29.544Z,97493.89
2019-01-14T04:24:40.373Z,97503.28
2019-01-14T04:26:51.161Z,97508.00
2019-01-14T04:29:01.964Z,97511.63
2019-01-14T04:31:12.772Z,97510.73
2019-01-14T04:33:23.572Z,97510.18
2019-01-14T04:35:34.385Z,97508.52
2019-01-14T04:37:45.191Z,97516.09
2019-01-14T04:39:55.986Z,97513.98
2019-01-14T04:42:07.031Z,97526.03
2019-01-14T04:44:17.805Z,97528.52
2019-01-14T04:46:28.636Z,97529.28
2019-01-14T04:48:39.431Z,97539.34
2019-01-14T04:50:50.251Z,97536.25
2019-01-14T04:53:01.054Z,97540.20
2019-01-14T04:55:11.993Z,97546.47
2019-01-14T04:57:22.796Z,97556.72
2019-01-14T04:59:33.589Z,97561.10
2019-01-14T05:01:44.446Z,97566.25
2019-01-14T05:03:55.230Z,97568.83
2019-01-14T05:06:06.045Z,97576.50
2019-01-14T05:08:16.840Z,97582.02
2019-01-14T05:10:27.652Z,97585.98
2019-01-14T05:12:38.468Z,97588.46
2019-01-14T05:14:49.284Z,97591.05
2019-01-14T05:17:00.154Z,97586.41
2019-01-14T05:19:10.941Z,97588.62
2019-01-14T05:21:21.734Z,97590.89
2019-01-14T05:23:32.563Z,97589.59
2019-01-14T05:25:43.385Z,97592.17
2019-01-14T05:27:54.211Z,97601.13
2019-01-14T05:30:46.643Z,97595.52
2019-01-14T05:32:57.459Z,97611.56
2019-01-14T05:35:49.914Z,97599.55
2019-01-14T05:38:00.758Z,97605.52
2019-01-14T05:40:53.215Z,97606.66
2019-01-14T05:43:04.048Z,97612.36
2019-01-14T05:45:14.939Z,97604.23
2019-01-14T05:47:25.776Z,97606.13
2019-01-14T05:49:36.576Z,97610.23
2019-01-14T05:51:47.370Z,97618.05
2019-01-14T05:53:58.177Z,97611.52
2019-01-14T05:56:08.974Z,97611.83
2019-01-14T05:58:19.789Z,97613.48
2019-01-14T06:01:12.223Z,97616.16
2019-01-14T06:03:23.028Z,97621.36
2019-01-14T06:05:33.822Z,97622.36
2019-01-14T06:07:45.168Z,97620.84
2019-01-14T06:09:57.342Z,97620.91
2019-01-14T06:12:08.130Z,97626.83
2019-01-14T06:14:18.944Z,97633.27
2019-01-14T06:16:29.773Z,97629.77
2019-01-14T06:18:40.582Z,97633.27
2019-01-14T06:20:51.385Z,97630.47
2019-01-14T06:23:02.382Z,97626.06
2019-01-14T06:25:54.855Z,97634.01
2019-01-14T06:28:05.651Z,97633.18
2019-01-14T06:30:36.432Z,97638.64
2019-01-14T06:32:47.236Z,97641.13
2019-01-14T06:34:58.049Z,97644.48
2019-01-14T06:37:08.950Z,97646.28
2019-01-14T06:39:19.775Z,97650.23
2019-01-14T06:41:30.606Z,97644.63
2019-01-14T06:43:41.424Z,97653.42
2019-01-14T06:45:52.244Z,97653.42
2019-01-14T06:48:44.697Z,97659.86
2019-01-14T06:50:55.500Z,97656.77
2019-01-14T06:53:06.286Z,97666.77
2019-01-14T06:55:17.413Z,97673.43
2019-01-14T06:57:28.209Z,97674.26
2019-01-14T06:59:39.002Z,97673.66
2019-01-14T07:01:49.844Z,97679.86
2019-01-14T07:04:00.646Z,97679.43
2019-01-14T07:06:11.466Z,97683.65
2019-01-14T07:08:22.254Z,97684.87
2019-01-14T07:10:33.072Z,97680.79
2019-01-14T07:12:43.901Z,97693.13
2019-01-14T07:14:54.697Z,97696.39
2019-01-14T07:17:05.532Z,97694.81
2019-01-14T07:19:16.321Z,97698.00
2019-01-14T07:21:27.145Z,97703.67
2019-01-14T07:23:37.948Z,97701.86
2019-01-14T07:25:48.744Z,97707.39
2019-01-14T07:27:59.556Z,97708.13
2019-01-14T07:30:30.217Z,97708.22
2019-01-14T07:32:41.056Z,97712.52
2019-01-14T07:34:51.842Z,97706.70
2019-01-14T07:37:02.854Z,97717.38
2019-01-14T07:39:13.642Z,97715.72
2019-01-14T07:41:24.473Z,97720.27
2019-01-14T07:43:35.306Z,97721.24
2019-01-14T07:45:46.229Z,97718.20
2019-01-14T07:47:57.075Z,97733.89
2019-01-14T07:50:49.577Z,97733.89
2019-01-14T07:53:00.344Z,97735.64
2019-01-14T07:55:11.350Z,97734.95
2019-01-14T07:57:22.162Z,97736.70
2019-01-14T07:59:32.958Z,97749.53
2019-01-14T08:01:43.850Z,97751.19
2019-01-14T08:03:54.681Z,97758.84
2019-01-14T08:06:05.489Z,97756.66
2019-01-14T08:08:16.298Z,97761.50
2019-01-14T08:10:27.089Z,97764.53
2019-01-14T08:12:37.946Z,97765.82
2019-01-14T08:14:48.740Z,97770.43
2019-01-14T08:16:59.562Z,97774.38
2019-01-14T08:19:10.365Z,97776.88
2019-01-14T08:21:21.152Z,97788.27
2019-01-14T08:23:31.961Z,97792.47
2019-01-14T08:25:42.857Z,97793.56
2019-01-14T08:27:53.653Z,97800.98
2019-01-14T08:30:24.457Z,97797.80
2019-01-14T08:32:35.243Z,97801.44
2019-01-14T08:34:46.064Z,97795.45
2019-01-14T08:37:00.740Z,97803.13
2019-01-14T08:39:09.582Z,97808.28
2019-01-14T08:46:11.883Z,97817.31
2019-01-14T08:48:22.694Z,97821.49
2019-01-14T08:50:33.522Z,97820.58
2019-01-14T08:52:44.432Z,97827.16
2019-01-14T08:54:55.225Z,97822.78
2019-01-14T08:57:06.071Z,97823.23
2019-01-14T08:59:16.901Z,97828.34
2019-01-14T09:01:27.727Z,97833.41
2019-01-14T09:03:38.538Z,97835.67
2019-01-14T09:05:49.550Z,97836.81
2019-01-14T09:08:00.356Z,97832.58
2019-01-14T09:10:52.823Z,97823.47
2019-01-14T09:13:03.920Z,97832.30
2019-01-14T09:15:56.392Z,97835.16
2019-01-14T09:18:07.197Z,97830.45
2019-01-14T09:20:59.645Z,97828.02
2019-01-14T09:23:10.542Z,97842.89
2019-01-14T09:25:21.344Z,97842.83
2019-01-14T09:27:32.164Z,97849.14
2019-01-14T09:29:42.962Z,97852.31
2019-01-14T09:36:34.583Z,97845.56
2019-01-14T09:38:45.385Z,97845.05
2019-01-14T09:41:04.072Z,97851.87
2019-01-14T09:43:16.366Z,97854.16
2019-01-14T09:45:27.186Z,97858.77
2019-01-14T09:47:38.019Z,97854.98
2019-01-14T09:49:48.786Z,97854.89
2019-01-14T09:51:59.616Z,97846.33
2019-01-14T09:54:10.463Z,97852.41
2019-01-14T09:56:21.266Z,97849.95
2019-01-14T09:58:32.074Z,97857.09
2019-01-14T10:00:42.882Z,97844.80
2019-01-14T10:02:55.561Z,97844.97
2019-01-14T10:05:48.059Z,97852.02
2019-01-14T10:07:58.888Z,97850.48
2019-01-14T10:10:51.392Z,97860.29
2019-01-14T10:13:02.416Z,97844.50
2019-01-14T10:15:54.855Z,97849.81
2019-01-14T10:18:05.721Z,97848.98
2019-01-14T10:20:16.522Z,97847.23
2019-01-14T10:22:27.511Z,97848.52
2019-01-14T10:24:38.346Z,97844.52
2019-01-14T10:26:49.153Z,97843.37
2019-01-14T10:28:59.968Z,97842.01
2019-01-14T10:31:10.773Z,97859.37
2019-01-14T10:33:21.611Z,97857.47
2019-01-14T10:35:32.398Z,97844.34
2019-01-14T10:37:43.229Z,97847.02
2019-01-14T10:39:54.052Z,97846.46
2019-01-14T10:42:05.239Z,97846.63
2019-01-14T10:44:17.723Z,97857.72
2019-01-14T10:46:28.565Z,97853.16
2019-01-14T10:48:39.369Z,97846.33
2019-01-14T10:50:50.165Z,97854.44
2019-01-14T10:53:00.973Z,97850.05
2019-01-14T10:57:50.825Z,97851.50
2019-01-14T11:00:43.302Z,97854.08
2019-01-14T11:02:54.351Z,97860.53
2019-01-14T11:05:46.821Z,97863.11
2019-01-14T11:07:57.631Z,97857.95
2019-01-14T11:10:50.088Z,97877.14
2019-01-14T11:13:00.886Z,97869.41
2019-01-14T11:15:53.364Z,97859.37
2019-01-14T11:18:04.354Z,97857.95
2019-01-14T11:20:56.837Z,97859.61
2019-01-14T11:23:07.635Z,97868.86
2019-01-14T11:25:18.530Z,97859.83
2019-01-14T11:27:29.351Z,97859.98
2019-01-14T11:32:12.508Z,97856.42
2019-01-14T11:34:23.305Z,97860.33
2019-01-14T11:36:34.136Z,97863.64
2019-01-14T11:39:26.599Z,97862.50
2019-01-14T11:41:37.433Z,97855.09
2019-01-14T11:43:48.459Z,97856.26
2019-01-14T11:45:59.260Z,97856.32
2019-01-14T11:48:10.186Z,97868.03
2019-01-14T11:50:21.101Z,97864.28
2019-01-14T11:52:31.934Z,97862.93
2019-01-14T11:54:42.747Z,97865.88
2019-01-14T11:56:53.679Z,97866.73
2019-01-14T11:59:04.499Z,97859.06
2019-01-14T12:01:15.316Z,97871.66
2019-01-14T12:03:26.111Z,97863.05
2019-01-14T12:05:36.923Z,97869.20
2019-01-14T12:07:47.952Z,97862.69
2019-01-14T12:09:58.746Z,97867.61
2019-01-14T12:12:09.616Z,97869.98
2019-01-14T12:14:20.413Z,97866.25
2019-01-14T12:16:31.254Z,97864.05
2019-01-14T12:18:42.049Z,97855.62
2019-01-14T12:20:52.868Z,97853.13
2019-01-14T12:23:03.784Z,97852.58
2019-01-14T12:25:14.572Z,97846.37
2019-01-14T12:27:25.430Z,97852.20
2019-01-14T12:29:36.223Z,97852.39
2019-01-14T12:31:47.041Z,97854.73
2019-01-14T12:33:57.857Z,97849.93
2019-01-14T12:36:08.657Z,97853.66
2019-01-14T12:38:19.483Z,97846.13
2019-01-14T12:40:30.295Z,97837.55
2019-01-14T12:42:41.116Z,97851.07
2019-01-14T12:44:51.981Z,97857.38
2019-01-14T12:47:02.872Z,97853.96
2019-01-14T12:49:13.691Z,97858.66
2019-01-14T12:51:24.484Z,97852.88
2019-01-14T12:53:35.293Z,97841.48
2019-01-14T12:55:46.096Z,97856.05
2019-01-14T12:57:56.897Z,97846.52
2019-01-14T13:00:49.375Z,97857.14
2019-01-14T13:03:00.196Z,97846.62
2019-01-14T13:05:52.644Z,97859.26
2019-01-14T13:08:03.544Z,97867.53
2019-01-14T13:10:14.484Z,97878.46
2019-01-14T13:12:25.305Z,97958.23
2019-01-14T13:14:36.138Z,97966.01
2019-01-14T13:16:46.955Z,97969.70
2019-01-14T13:18:57.755Z,97977.51
2019-01-14T13:21:08.576Z,97986.68
2019-01-14T13:23:19.378Z,97987.19
2019-01-14T13:25:30.199Z,97984.98
2019-01-14T13:27:41.213Z,97981.37
2019-01-14T13:29:52.032Z,97985.11
2019-01-14T13:32:03.044Z,97987.45
2019-01-14T13:34:13.938Z,97979.53
2019-01-14T13:36:24.872Z,97991.94
2019-01-14T13:38:35.677Z,97989.23
2019-01-14T13:40:46.631Z,98005.82
2019-01-14T13:42:57.439Z,98002.22
2019-01-14T13:45:52.458Z,97999.72
2019-01-14T13:48:24.402Z,98013.04
2019-01-14T13:50:35.217Z,98027.92
2019-01-14T13:52:46.025Z,98035.64
2019-01-14T13:54:56.822Z,98040.87
2019-01-14T13:57:07.682Z,98041.25
2019-01-14T13:59:18.496Z,98024.86
2019-01-14T14:01:29.315Z,98043.20
2019-01-14T14:03:40.156Z,98063.83
2019-01-14T14:05:50.992Z,98073.97
2019-01-14T14:08:01.980Z,98067.54
2019-01-14T14:10:54.484Z,98078.52
2019-01-14T14:13:05.296Z,98079.04
2019-01-14T14:15:57.787Z,98089.78
2019-01-14T14:18:08.594Z,98109.80
2019-01-14T14:20:19.505Z,98105.70
2019-01-14T14:22:30.425Z,98119.97
2019-01-14T14:24:41.244Z,98120.77
2019-01-14T14:26:52.059Z,98125.36
2019-01-14T14:29:02.962Z,98126.84
2019-01-14T14:31:13.764Z,98130.61
2019-01-14T14:33:24.597Z,98131.48
2019-01-14T14:35:35.418Z,98134.75
2019-01-14T14:37:46.382Z,98127.47
2019-01-14T14:39:57.181Z,98131.78
2019-01-14T14:42:08.022Z,98140.05
2019-01-14T14:44:18.825Z,98147.38
2019-01-14T14:46:29.654Z,98149.89
2019-01-14T14:48:40.476Z,98158.88
2019-01-14T14:50:51.311Z,98167.15
2019-01-14T14:53:02.342Z,98161.10
2019-01-14T14:55:13.308Z,98171.34
2019-01-14T14:57:24.089Z,98176.03
2019-01-14T14:59:34.895Z,98174.78
2019-01-14T15:01:45.703Z,98177.91
2019-01-14T15:03:56.552Z,98182.67
2019-01-14T15:06:07.381Z,98189.70
2019-01-14T15:08:18.204Z,98196.62
2019-01-14T15:10:29.007Z,98208.98
2019-01-14T15:12:40.043Z,98211.32
2019-01-14T15:14:50.862Z,98218.64
2019-01-14T15:17:01.692Z,98218.30
2019-01-14T15:19:12.519Z,98227.64
2019-01-14T15:21:23.363Z,98233.35
2019-01-14T15:23:34.181Z,98235.61
2019-01-14T15:25:45.000Z,98244.89
2019-01-14T15:27:55.847Z,98253.15
2019-01-14T15:30:48.302Z,98254.88
2019-01-14T15:32:59.123Z,98252.41
2019-01-14T15:35:10.051Z,98258.97
2019-01-14T15:37:20.839Z,98268.86
2019-01-14T15:39:31.680Z,98274.16
2019-01-14T15:41:42.484Z,98276.56
2019-01-14T15:43:53.338Z,98283.50
2019-01-14T15:46:04.155Z,98291.55
2019-01-14T15:48:14.965Z,98306.99
2019-01-14T15:50:25.798Z,98314.41
2019-01-14T15:52:36.713Z,98315.78
2019-01-14T15:54:47.640Z,98321.33
2019-01-14T15:56:58.449Z,98326.23
2019-01-14T15:59:09.263Z,98323.01
2019-01-14T16:01:20.229Z,98318.44
2019-01-14T16:03:31.008Z,98322.83
2019-01-14T16:05:41.821Z,98320.70
2019-01-14T16:07:52.645Z,98325.84
2019-01-14T16:10:23.343Z,98329.76
2019-01-14T16:12:34.151Z,98329.76
2019-01-14T16:14:44.947Z,98340.17
2019-01-14T16:16:55.808Z,98344.03
2019-01-14T16:19:06.589Z,98352.81
2019-01-14T16:21:17.409Z,98356.55
2019-01-14T16:23:28.223Z,98358.36
2019-01-14T16:25:39.052Z,98358.03
2019-01-14T16:27:49.860Z,98358.99
2019-01-14T16:30:20.545Z,98358.48
2019-01-14T16:32:31.394Z,98364.44
2019-01-14T16:34:42.250Z,98367.78
2019-01-14T16:36:53.147Z,98374.12
2019-01-14T16:39:45.638Z,98376.50
2019-01-14T16:41:56.556Z,98385.27
2019-01-14T16:44:07.396Z,98389.07
2019-01-14T16:46:18.215Z,98393.15
2019-01-14T16:48:29.045Z,98401.30
2019-01-14T16:50:39.864Z,98399.18
2019-01-14T16:52:50.798Z,98410.30
2019-01-14T16:55:01.735Z,98410.80
2019-01-14T16:57:12.541Z,98406.74
2019-01-14T16:59:23.341Z,98415.48
2019-01-14T17:01:34.186Z,98423.21
2019-01-14T17:03:45.043Z,98423.21
2019-01-14T17:05:55.835Z,98419.78
2019-01-14T17:08:06.765Z,98422.23
2019-01-14T17:10:17.572Z,98427.48
2019-01-14T17:12:28.389Z,98433.48
2019-01-14T17:14:39.233Z,98431.81
2019-01-14T17:16:50.164Z,98438.45
2019-01-14T17:19:01.068Z,98439.07
2019-01-14T17:21:11.850Z,98447.05
2019-01-14T17:23:22.673Z,98448.42
2019-01-14T17:25:33.482Z,98453.19
2019-01-14T17:27:45.352Z,98458.30
2019-01-14T17:29:57.035Z,98472.01
2019-01-14T17:32:07.831Z,98477.22
2019-01-14T17:34:18.650Z,98481.08
2019-01-14T17:36:29.472Z,98481.19
2019-01-14T17:38:40.307Z,98486.58
2019-01-14T17:40:51.115Z,98492.97
2019-01-14T17:43:02.037Z,98497.16
2019-01-14T17:45:12.991Z,98498.42
2019-01-14T17:47:23.778Z,98501.45
2019-01-14T17:49:34.701Z,98505.17
2019-01-14T17:51:45.616Z,98506.83
2019-01-14T17:53:56.427Z,98497.39
2019-01-14T17:56:07.283Z,98507.11
2019-01-14T17:58:18.096Z,98510.52
2019-01-14T18:00:29.021Z,98513.40
2019-01-14T18:02:39.816Z,98510.77
2019-01-14T18:04:50.618Z,98513.27
2019-01-14T18:07:01.469Z,98520.22
2019-01-14T18:09:12.261Z,98519.35
2019-01-14T18:11:23.122Z,98515.83
2019-01-14T18:13:33.933Z,98529.86
2019-01-14T18:15:44.767Z,98530.31
2019-01-14T18:17:55.599Z,98532.52
2019-01-14T18:20:26.322Z,98530.45
2019-01-14T18:22:37.129Z,98530.45
2019-01-14T18:24:47.951Z,98526.54
2019-01-14T18:26:58.792Z,98524.03
2019-01-14T18:29:09.615Z,98530.86
2019-01-14T18:31:20.502Z,98535.16
2019-01-14T18:33:31.297Z,98547.53
2019-01-14T18:35:42.231Z,98548.45
2019-01-14T18:37:53.049Z,98551.93
2019-01-14T18:40:47.254Z,98557.70
2019-01-14T18:42:58.357Z,98560.16
2019-01-14T18:45:50.810Z,98571.82
2019-01-14T18:48:01.642Z,98577.05
2019-01-14T18:50:54.141Z,98580.14
2019-01-14T18:53:05.022Z,98586.86
2019-01-14T18:55:57.531Z,98590.32
2019-01-14T18:58:08.334Z,98595.48
2019-01-14T19:01:00.814Z,98596.81
2019-01-14T19:03:11.672Z,98594.27
2019-01-14T19:05:22.498Z,98596.91
2019-01-14T19:07:33.374Z,98596.06
2019-01-14T19:09:44.172Z,98596.56
2019-01-14T19:11:55.053Z,98594.86
2019-01-14T19:14:05.922Z,98603.89
2019-01-14T19:16:16.737Z,98613.14
2019-01-14T19:18:27.604Z,98602.82
2019-01-14T19:20:38.454Z,98615.71
2019-01-14T19:22:49.545Z,98616.78
2019-01-14T19:25:00.378Z,98615.97
2019-01-14T19:27:16.395Z,98620.14
2019-01-14T19:29:24.042Z,98622.76
2019-01-14T19:31:34.874Z,98628.86
2019-01-14T19:33:45.748Z,98629.45
2019-01-14T19:35:56.552Z,98632.45
2019-01-14T19:38:07.478Z,98638.87
2019-01-14T19:41:01.996Z,98638.92
2019-01-14T19:43:12.715Z,98643.23
2019-01-14T19:46:05.220Z,98653.16
2019-01-14T19:48:16.084Z,98653.72
2019-01-14T19:50:27.007Z,98661.69
2019-01-14T19:52:37.832Z,98667.34
2019-01-14T19:54:48.666Z,98668.66
2019-01-14T19:56:59.454Z,98674.70
2019-01-14T19:59:10.280Z,98675.54
2019-01-14T20:01:21.093Z,98686.81
2019-01-14T20:03:31.958Z,98691.16
2019-01-14T20:05:42.823Z,98697.13
2019-01-14T20:10:26.069Z,98698.06
2019-01-14T20:12:36.904Z,98698.45
2019-01-14T20:14:47.765Z,98697.07
2019-01-14T20:16:58.563Z,98702.70
2019-01-14T20:19:09.396Z,98705.75
2019-01-14T20:21:20.329Z,98707.10
2019-01-14T20:23:31.138Z,98712.43
2019-01-14T20:25:42.096Z,98705.02
2019-01-14T20:27:52.918Z,98710.91
2019-01-14T20:30:23.782Z,98711.78
2019-01-14T20:32:34.586Z,98721.44
2019-01-14T20:34:45.438Z,98724.80
2019-01-14T20:36:56.353Z,98720.95
2019-01-14T20:41:39.685Z,98730.28
2019-01-14T20:43:50.613Z,98726.52
2019-01-14T20:46:01.507Z,98726.62
2019-01-14T20:48:12.330Z,98734.36
2019-01-14T20:50:23.357Z,98732.24
2019-01-14T20:52:34.179Z,98732.36
2019-01-14T20:54:44.978Z,98737.09
2019-01-14T20:56:55.816Z,98735.87
2019-01-14T20:59:06.710Z,98735.43
2019-01-14T21:01:17.532Z,98740.62
2019-01-14T21:03:28.358Z,98741.50
2019-01-14T21:05:39.284Z,98741.80
2019-01-14T21:07:50.298Z,98742.96
2019-01-14T21:10:01.097Z,98736.95
2019-01-14T21:12:11.919Z,98737.49
2019-01-14T21:14:22.763Z,98739.94
2019-01-14T21:16:33.568Z,98735.22
2019-01-14T21:18:44.380Z,98734.81
2019-01-14T21:20:55.197Z,98733.52
2019-01-14T21:23:05.998Z,98728.84
2019-01-14T21:25:16.910Z,98725.40
2019-01-14T21:27:27.726Z,98722.88
2019-01-14T21:29:38.627Z,98729.19
2019-01-14T21:31:49.443Z,98722.09
2019-01-14T21:34:00.287Z,98722.92
2019-01-14T21:36:11.100Z,98724.66
2019-01-14T21:38:21.930Z,98734.58
2019-01-14T21:40:32.863Z,98744.63
2019-01-14T21:42:43.710Z,98740.90
2019-01-14T21:44:54.554Z,98747.81
2019-01-14T21:47:05.360Z,98743.58
2019-01-14T21:49:16.188Z,98741.56
2019-01-14T21:51:27.078Z,98745.81
2019-01-14T21:53:37.877Z,98753.48
2019-01-14T21:55:48.704Z,98750.87
2019-01-14T21:57:59.495Z,98760.59
2019-01-14T22:00:30.213Z,98767.84
2019-01-14T22:02:41.016Z,98768.34
2019-01-14T22:04:51.855Z,98766.67
2019-01-14T22:07:02.771Z,98777.36
2019-01-14T22:09:13.626Z,98776.19
2019-01-14T22:11:24.423Z,98779.14
2019-01-14T22:13:35.321Z,98788.63
2019-01-14T22:15:46.248Z,98790.26
2019-01-14T22:17:57.056Z,98793.55
2019-01-14T22:20:29.638Z,98785.55
2019-01-14T22:22:40.447Z,98790.20
2019-01-14T22:24:51.255Z,98787.69
2019-01-14T22:27:02.101Z,98782.16
2019-01-14T22:29:12.903Z,98780.59
2019-01-14T22:31:23.736Z,98777.58
2019-01-14T22:33:34.535Z,98778.48
2019-01-14T22:35:45.361Z,98781.48
2019-01-14T22:37:56.170Z,98781.94
2019-01-14T22:40:48.647Z,98787.22
2019-01-14T22:42:59.452Z,98791.50
2019-01-14T22:45:51.949Z,98797.87
2019-01-14T22:48:02.965Z,98793.77
2019-01-14T22:50:55.410Z,98796.69
2019-01-14T22:53:06.227Z,98803.09
2019-01-14T22:55:17.038Z,98802.56
2019-01-14T22:57:27.911Z,98809.41
2019-01-14T22:59:38.733Z,98809.02
2019-01-14T23:04:12.417Z,98814.98
2019-01-14T23:06:23.235Z,98812.37
2019-01-14T23:08:34.050Z,98814.89
2019-01-14T23:10:44.954Z,98819.66
2019-01-14T23:12:55.772Z,98814.44
2019-01-14T23:15:06.588Z,98821.24
2019-01-14T23:17:17.418Z,98819.52
2019-01-14T23:19:28.229Z,98824.55
2019-01-14T23:21:39.041Z,98820.34
2019-01-14T23:23:49.919Z,98821.23
2019-01-14T23:26:00.719Z,98822.92
2019-01-14T23:28:11.575Z,98830.61
2019-01-14T23:30:22.373Z,98825.53
2019-01-14T23:32:33.173Z,98832.34
2019-01-14T23:34:44.001Z,98830.21
2019-01-14T23:36:54.803Z,98834.80
2019-01-14T23:39:47.270Z,98830.11
2019-01-14T23:42:00.589Z,98831.36
2019-01-14T23:44:10.810Z,98825.88
2019-01-14T23:46:21.623Z,98830.17
2019-01-14T23:48:32.417Z,98830.27
2019-01-14T23:50:43.254Z,98831.59
2019-01-14T23:52:54.048Z,98830.62
2019-01-14T23:55:46.516Z,98836.13
2019-01-14T23:57:57.312Z,98843.38
